createdAt,value
2018-04-18T00:01:22.679Z,96258.27
2018-04-18T00:04:25.931Z,96253.86
2018-04-18T00:07:29.221Z,96261.94
2018-04-18T00:10:32.466Z,96256.50
2018-04-18T00:13:35.734Z,96254.90
2018-04-18T00:16:39.019Z,96259.70
2018-04-18T00:19:42.281Z,96258.97
2018-04-18T00:22:45.548Z,96257.83
2018-04-18T00:25:48.829Z,96263.27
2018-04-18T00:28:52.098Z,96262.59
2018-04-18T00:31:55.442Z,96261.45
2018-04-18T00:34:58.736Z,96266.64
2018-04-18T00:38:20.555Z,96260.63
2018-04-18T00:41:30.720Z,96273.41
2018-04-18T00:44:34.758Z,96271.05
2018-04-18T00:47:38.024Z,96272.34
2018-04-18T00:50:42.273Z,96268.98
2018-04-18T00:53:45.531Z,96267.33
2018-04-18T00:56:48.777Z,96269.32
2018-04-18T00:59:52.045Z,96271.06
2018-04-18T01:02:55.322Z,96264.16
2018-04-18T01:05:58.599Z,96267.98
2018-04-18T01:09:01.847Z,96264.00
2018-04-18T01:12:05.094Z,96269.98
2018-04-18T01:15:08.386Z,96266.42
2018-04-18T01:18:11.648Z,96269.98
2018-04-18T01:21:14.901Z,96271.97
2018-04-18T01:24:18.197Z,96271.98
2018-04-18T01:27:21.591Z,96274.50
2018-04-18T01:30:24.842Z,96279.17
2018-04-18T01:33:28.113Z,96286.91
2018-04-18T01:36:32.145Z,96279.52
2018-04-18T01:39:35.417Z,96279.23
2018-04-18T01:42:38.694Z,96287.66
2018-04-18T01:45:41.949Z,96284.73
2018-04-18T01:48:45.970Z,96281.42
2018-04-18T01:51:49.996Z,96275.35
2018-04-18T01:54:53.245Z,96290.22
2018-04-18T01:57:56.513Z,96296.12
2018-04-18T02:00:59.756Z,96294.65
2018-04-18T02:04:03.024Z,96292.86
2018-04-18T02:07:06.272Z,96285.98
2018-04-18T02:10:10.310Z,96290.29
2018-04-18T02:13:13.601Z,96295.58
2018-04-18T02:16:16.850Z,96296.77
2018-04-18T02:19:20.111Z,96297.05
2018-04-18T02:22:23.376Z,96297.96
2018-04-18T02:25:27.389Z,96301.32
2018-04-18T02:28:31.402Z,96298.03
2018-04-18T02:31:35.418Z,96296.56
2018-04-18T02:34:39.458Z,96297.09
2018-04-18T02:37:42.717Z,96295.89
2018-04-18T02:40:45.978Z,96301.39
2018-04-18T02:43:49.219Z,96301.65
2018-04-18T02:46:52.483Z,96298.60
2018-04-18T02:49:55.748Z,96303.11
2018-04-18T02:52:58.995Z,96305.13
2018-04-18T02:56:02.257Z,96301.12
2018-04-18T02:59:05.509Z,96297.59
2018-04-18T03:02:08.773Z,96300.91
2018-04-18T03:05:12.035Z,96303.20
2018-04-18T03:08:15.320Z,96306.95
2018-04-18T03:11:18.573Z,96305.50
2018-04-18T03:14:21.924Z,96302.77
2018-04-18T03:17:25.204Z,96306.43
2018-04-18T03:20:28.491Z,96309.08
2018-04-18T03:23:33.103Z,96306.97
2018-04-18T03:26:36.420Z,96313.88
2018-04-18T03:29:39.702Z,96306.69
2018-04-18T03:32:42.969Z,96306.13
2018-04-18T03:35:46.327Z,96306.88
2018-04-18T03:38:50.345Z,96310.44
2018-04-18T03:41:53.596Z,96307.77
2018-04-18T03:44:56.855Z,96305.25
2018-04-18T03:48:00.112Z,96305.42
2018-04-18T03:51:04.125Z,96310.83
2018-04-18T03:54:08.186Z,96314.10
2018-04-18T03:57:11.550Z,96311.72
2018-04-18T04:00:15.578Z,96310.70
2018-04-18T04:03:18.878Z,96316.38
2018-04-18T04:06:22.146Z,96318.49
2018-04-18T04:09:25.480Z,96324.34
2018-04-18T04:12:28.723Z,96319.02
2018-04-18T04:15:32.782Z,96325.09
2018-04-18T04:18:54.525Z,96322.81
2018-04-18T04:22:17.426Z,96327.53
2018-04-18T04:25:21.447Z,96322.77
2018-04-18T04:28:24.696Z,96321.58
2018-04-18T04:31:28.033Z,96327.75
2018-04-18T04:34:32.840Z,96326.95
2018-04-18T04:37:36.159Z,96332.05
2018-04-18T04:40:39.418Z,96329.91
2018-04-18T04:43:42.703Z,96337.91
2018-04-18T04:46:46.748Z,96344.35
2018-04-18T04:49:50.023Z,96342.20
2018-04-18T04:52:53.340Z,96349.50
2018-04-18T04:55:56.618Z,96351.91
2018-04-18T04:58:59.866Z,96362.19
2018-04-18T05:02:03.140Z,96363.33
2018-04-18T05:05:06.437Z,96368.08
2018-04-18T05:08:09.683Z,96366.79
2018-04-18T05:11:13.719Z,96369.06
2018-04-18T05:14:16.980Z,96378.52
2018-04-18T05:17:20.234Z,96382.31
2018-04-18T05:20:23.529Z,96387.55
2018-04-18T05:23:26.774Z,96384.89
2018-04-18T05:26:30.038Z,96393.63
2018-04-18T05:29:33.368Z,96396.08
2018-04-18T05:32:36.657Z,96391.97
2018-04-18T05:35:39.905Z,96391.17
2018-04-18T05:38:43.152Z,96397.41
2018-04-18T05:41:46.453Z,96393.45
2018-04-18T05:44:49.725Z,96393.98
2018-04-18T05:47:52.980Z,96402.69
2018-04-18T05:50:57.037Z,96399.45
2018-04-18T05:54:00.319Z,96401.95
2018-04-18T05:57:03.613Z,96406.58
2018-04-18T06:00:06.876Z,96404.57
2018-04-18T06:03:10.962Z,96410.58
2018-04-18T06:06:14.289Z,96409.25
2018-04-18T06:09:17.521Z,96411.78
2018-04-18T06:12:20.770Z,96410.93
2018-04-18T06:15:24.050Z,96406.39
2018-04-18T06:18:27.818Z,96404.17
2018-04-18T06:21:31.115Z,96405.17
2018-04-18T06:24:34.373Z,96400.17
2018-04-18T06:27:37.813Z,96400.67
2018-04-18T06:30:41.105Z,96401.63
2018-04-18T06:33:44.405Z,96409.00
2018-04-18T06:36:47.765Z,96406.58
2018-04-18T06:39:51.040Z,96410.86
2018-04-18T06:42:54.304Z,96409.14
2018-04-18T06:45:57.595Z,96412.07
2018-04-18T06:49:00.822Z,96406.41
2018-04-18T06:52:04.105Z,96403.63
2018-04-18T06:55:07.388Z,96409.34
2018-04-18T06:58:10.648Z,96408.07
2018-04-18T07:01:13.932Z,96406.47
2018-04-18T07:04:17.184Z,96407.02
2018-04-18T07:07:20.448Z,96408.37
2018-04-18T07:10:23.796Z,96410.80
2018-04-18T07:13:27.265Z,96409.31
2018-04-18T07:16:31.298Z,96406.47
2018-04-18T07:19:34.569Z,96413.31
2018-04-18T07:22:37.843Z,96410.76
2018-04-18T07:25:41.113Z,96410.50
2018-04-18T07:28:44.364Z,96415.09
2018-04-18T07:31:48.451Z,96410.09
2018-04-18T07:34:51.711Z,96411.39
2018-04-18T07:37:55.000Z,96420.14
2018-04-18T07:40:58.274Z,96420.91
2018-04-18T07:44:02.294Z,96417.93
2018-04-18T07:47:06.327Z,96425.72
2018-04-18T07:50:09.593Z,96421.23
2018-04-18T07:53:12.838Z,96423.53
2018-04-18T07:56:16.099Z,96429.20
2018-04-18T07:59:20.131Z,96429.81
2018-04-18T08:02:23.552Z,96430.17
2018-04-18T08:05:26.797Z,96434.44
2018-04-18T08:08:30.335Z,96429.84
2018-04-18T08:11:33.574Z,96430.14
2018-04-18T08:14:36.838Z,96437.75
2018-04-18T08:17:40.098Z,96438.98
2018-04-18T08:20:44.137Z,96444.08
2018-04-18T08:23:47.398Z,96436.08
2018-04-18T08:26:50.673Z,96446.64
2018-04-18T08:29:53.946Z,96446.41
2018-04-18T08:32:57.331Z,96446.32
2018-04-18T08:36:00.599Z,96445.59
2018-04-18T08:39:03.841Z,96442.14
2018-04-18T08:42:07.138Z,96449.03
2018-04-18T08:45:10.380Z,96449.70
2018-04-18T08:48:13.664Z,96451.36
2018-04-18T08:51:16.941Z,96452.55
2018-04-18T08:54:20.190Z,96450.81
2018-04-18T08:57:24.249Z,96447.14
2018-04-18T09:00:27.543Z,96445.73
2018-04-18T09:03:31.184Z,96441.98
2018-04-18T09:06:34.509Z,96443.98
2018-04-18T09:09:38.588Z,96441.48
2018-04-18T09:12:41.875Z,96446.41
2018-04-18T09:15:45.156Z,96447.20
2018-04-18T09:18:48.411Z,96449.00
2018-04-18T09:21:51.702Z,96442.78
2018-04-18T09:24:55.719Z,96443.22
2018-04-18T09:27:59.802Z,96448.06
2018-04-18T09:31:03.150Z,96443.77
2018-04-18T09:34:07.224Z,96445.91
2018-04-18T09:37:10.514Z,96445.52
2018-04-18T09:40:13.886Z,96445.29
2018-04-18T09:43:17.144Z,96447.36
2018-04-18T09:46:20.474Z,96442.06
2018-04-18T09:49:23.764Z,96435.84
2018-04-18T09:52:27.884Z,96442.42
2018-04-18T09:55:31.910Z,96443.67
2018-04-18T09:58:35.209Z,96431.09
2018-04-18T10:01:43.166Z,96434.62
2018-04-18T10:04:46.491Z,96430.27
2018-04-18T10:07:49.745Z,96427.25
2018-04-18T10:10:53.006Z,96430.84
2018-04-18T10:13:56.293Z,96438.69
2018-04-18T10:17:00.352Z,96433.67
2018-04-18T10:20:03.614Z,96438.28
2018-04-18T10:23:07.636Z,96431.41
2018-04-18T10:26:10.890Z,96434.80
2018-04-18T10:29:14.189Z,96430.41
2018-04-18T10:32:17.457Z,96436.41
2018-04-18T10:35:20.723Z,96441.29
2018-04-18T10:38:23.978Z,96431.63
2018-04-18T10:41:27.231Z,96433.67
2018-04-18T10:44:30.519Z,96439.33
2018-04-18T10:47:33.790Z,96431.48
2018-04-18T10:50:37.049Z,96438.74
2018-04-18T10:53:40.306Z,96438.52
2018-04-18T10:56:43.620Z,96426.22
2018-04-18T10:59:46.868Z,96435.92
2018-04-18T11:02:50.136Z,96439.23
2018-04-18T11:05:53.429Z,96428.30
2018-04-18T11:08:56.649Z,96431.60
2018-04-18T11:11:59.929Z,96427.02
2018-04-18T11:15:04.006Z,96428.00
2018-04-18T11:18:07.263Z,96418.00
2018-04-18T11:21:10.511Z,96417.61
2018-04-18T11:24:13.769Z,96417.70
2018-04-18T11:27:17.044Z,96410.84
2018-04-18T11:30:20.324Z,96414.33
2018-04-18T11:33:23.602Z,96410.65
2018-04-18T11:36:26.950Z,96405.86
2018-04-18T11:39:30.223Z,96407.14
2018-04-18T11:42:33.501Z,96404.44
2018-04-18T11:45:36.771Z,96399.69
2018-04-18T11:48:40.033Z,96400.93
2018-04-18T11:51:43.309Z,96411.31
2018-04-18T11:54:46.561Z,96402.59
2018-04-18T11:57:49.872Z,96397.42
2018-04-18T12:00:53.127Z,96408.57
2018-04-18T12:03:56.420Z,96404.56
2018-04-18T12:06:59.731Z,96406.88
2018-04-18T12:10:02.989Z,96397.12
2018-04-18T12:13:08.850Z,96394.71
2018-04-18T12:16:12.422Z,96393.46
2018-04-18T12:19:15.811Z,96394.55
2018-04-18T12:22:20.353Z,96393.68
2018-04-18T12:25:24.173Z,96396.55
2018-04-18T12:28:40.955Z,96393.11
2018-04-18T12:31:45.803Z,96386.28
2018-04-18T12:34:54.730Z,96386.77
2018-04-18T12:38:07.359Z,96378.05
2018-04-18T12:41:11.090Z,96382.34
2018-04-18T12:44:14.478Z,96380.80
2018-04-18T12:47:19.489Z,96376.30
2018-04-18T12:50:23.675Z,96378.14
2018-04-18T12:53:28.025Z,96366.44
2018-04-18T12:56:31.477Z,96365.89
2018-04-18T12:59:34.845Z,96362.12
2018-04-18T13:02:39.699Z,96370.90
2018-04-18T13:05:42.969Z,96367.42
2018-04-18T13:08:46.228Z,96369.30
2018-04-18T13:12:14.153Z,96363.93
2018-04-18T13:15:17.414Z,96351.83
2018-04-18T13:18:20.901Z,96355.88
2018-04-18T13:21:24.142Z,96355.53
2018-04-18T13:24:27.402Z,96355.86
2018-04-18T13:27:31.443Z,96343.71
2018-04-18T13:30:34.711Z,96353.30
2018-04-18T13:33:38.751Z,96345.59
2018-04-18T13:36:42.043Z,96337.77
2018-04-18T13:39:45.270Z,96346.87
2018-04-18T13:42:49.327Z,96343.99
2018-04-18T13:45:52.589Z,96339.30
2018-04-18T13:48:55.856Z,96345.28
2018-04-18T13:51:59.290Z,96337.09
2018-04-18T13:55:02.554Z,96342.19
2018-04-18T13:58:06.490Z,96334.09
2018-04-18T14:01:09.791Z,96340.80
2018-04-18T14:04:13.311Z,96340.25
2018-04-18T14:07:16.626Z,96331.48
2018-04-18T14:10:19.890Z,96327.01
2018-04-18T14:13:23.262Z,96322.60
2018-04-18T14:16:26.523Z,96327.61
2018-04-18T14:19:29.800Z,96328.14
2018-04-18T14:22:33.175Z,96326.05
2018-04-18T14:25:36.465Z,96323.28
2018-04-18T14:28:39.715Z,96322.92
2018-04-18T14:31:42.971Z,96324.20
2018-04-18T14:34:46.269Z,96323.45
2018-04-18T14:37:49.589Z,96321.08
2018-04-18T14:40:53.661Z,96325.91
2018-04-18T14:43:56.947Z,96322.67
2018-04-18T14:47:02.425Z,96325.98
2018-04-18T14:50:05.716Z,96314.21
2018-04-18T14:53:09.011Z,96321.36
2018-04-18T14:56:12.291Z,96321.78
2018-04-18T14:59:15.559Z,96322.85
2018-04-18T15:02:18.869Z,96323.31
2018-04-18T15:05:22.937Z,96320.93
2018-04-18T15:08:26.198Z,96318.75
2018-04-18T15:11:30.260Z,96307.56
2018-04-18T15:14:33.606Z,96310.34
2018-04-18T15:17:37.692Z,96309.17
2018-04-18T15:20:41.008Z,96309.66
2018-04-18T15:23:44.277Z,96307.95
2018-04-18T15:26:47.535Z,96309.31
2018-04-18T15:29:50.832Z,96301.28
2018-04-18T15:32:55.629Z,96303.77
2018-04-18T15:35:59.196Z,96300.46
2018-04-18T15:39:03.394Z,96304.57
2018-04-18T15:42:06.688Z,96306.17
2018-04-18T15:45:10.082Z,96314.35
2018-04-18T15:48:14.350Z,96310.80
2018-04-18T15:51:17.630Z,96308.23
2018-04-18T15:54:20.932Z,96310.36
2018-04-18T15:57:24.244Z,96312.73
2018-04-18T16:00:27.523Z,96302.93
2018-04-18T16:03:31.315Z,96307.28
2018-04-18T16:06:35.365Z,96300.66
2018-04-18T16:09:38.751Z,96309.12
2018-04-18T16:12:42.075Z,96304.37
2018-04-18T16:15:45.457Z,96301.34
2018-04-18T16:18:48.863Z,96304.77
2018-04-18T16:21:52.601Z,96299.29
2018-04-18T16:24:57.515Z,96305.77
2018-04-18T16:28:00.933Z,96307.14
2018-04-18T16:31:04.216Z,96301.13
2018-04-18T16:34:07.513Z,96300.70
2018-04-18T16:37:10.966Z,96306.96
2018-04-18T16:40:15.151Z,96300.74
2018-04-18T16:43:18.888Z,96308.17
2018-04-18T16:46:22.285Z,96308.25
2018-04-18T16:49:26.452Z,96312.33
2018-04-18T16:52:29.824Z,96313.33
2018-04-18T16:55:33.895Z,96309.88
2018-04-18T16:58:37.199Z,96307.77
2018-04-18T17:02:05.094Z,96313.64
2018-04-18T17:05:09.479Z,96311.17
2018-04-18T17:08:12.763Z,96306.08
2018-04-18T17:11:16.056Z,96310.92
2018-04-18T17:14:19.542Z,96307.41
2018-04-18T17:17:22.798Z,96301.45
2018-04-18T17:20:26.201Z,96305.91
2018-04-18T17:23:29.543Z,96311.86
2018-04-18T17:26:32.848Z,96314.20
2018-04-18T17:29:36.142Z,96311.36
2018-04-18T17:32:40.449Z,96309.89
2018-04-18T17:35:44.497Z,96309.55
2018-04-18T17:38:47.759Z,96303.56
2018-04-18T17:41:51.795Z,96307.30
2018-04-18T17:44:55.075Z,96303.90
2018-04-18T17:47:59.098Z,96305.10
2018-04-18T17:51:02.390Z,96305.25
2018-04-18T17:54:05.777Z,96301.46
2018-04-18T17:57:09.831Z,96301.02
2018-04-18T18:00:13.117Z,96300.52
2018-04-18T18:03:17.134Z,96302.80
2018-04-18T18:06:20.449Z,96308.40
2018-04-18T18:09:24.266Z,96306.61
2018-04-18T18:12:27.525Z,96310.14
2018-04-18T18:15:31.600Z,96316.12
2018-04-18T18:18:34.859Z,96310.41
2018-04-18T18:21:38.893Z,96318.48
2018-04-18T18:24:42.154Z,96314.69
2018-04-18T18:27:46.189Z,96313.66
2018-04-18T18:30:50.226Z,96317.36
2018-04-18T18:33:53.500Z,96316.70
2018-04-18T18:36:56.812Z,96319.55
2018-04-18T18:40:00.100Z,96330.13
2018-04-18T18:43:09.141Z,96337.21
2018-04-18T18:46:12.470Z,96342.79
2018-04-18T18:49:16.506Z,96338.07
2018-04-18T18:52:19.799Z,96341.36
2018-04-18T18:55:23.075Z,96344.69
2018-04-18T18:58:26.394Z,96345.69
2018-04-18T19:01:29.654Z,96347.14
2018-04-18T19:04:33.005Z,96341.63
2018-04-18T19:07:36.321Z,96351.30
2018-04-18T19:10:39.684Z,96350.05
2018-04-18T19:13:43.726Z,96348.45
2018-04-18T19:16:46.996Z,96342.56
2018-04-18T19:19:50.287Z,96349.11
2018-04-18T19:22:54.433Z,96349.56
2018-04-18T19:25:58.684Z,96343.93
2018-04-18T19:29:02.026Z,96346.70
2018-04-18T19:32:06.223Z,96351.04
2018-04-18T19:35:09.501Z,96344.52
2018-04-18T19:38:12.788Z,96347.75
2018-04-18T19:41:16.073Z,96344.43
2018-04-18T19:44:19.355Z,96347.88
2018-04-18T19:47:25.685Z,96345.94
2018-04-18T19:50:28.960Z,96342.56
2018-04-18T19:53:32.705Z,96347.09
2018-04-18T19:56:36.800Z,96345.20
2018-04-18T19:59:40.919Z,96341.57
2018-04-18T20:02:44.196Z,96340.61
2018-04-18T20:05:48.234Z,96337.42
2018-04-18T20:12:25.217Z,96334.91
2018-04-18T20:15:28.697Z,96333.41
2018-04-18T20:18:31.944Z,96331.31
2018-04-18T20:21:36.030Z,96326.05
2018-04-18T20:24:39.305Z,96326.77
2018-04-18T20:27:42.565Z,96329.04
2018-04-18T20:30:45.862Z,96326.84
2018-04-18T20:33:49.141Z,96327.01
2018-04-18T20:36:53.170Z,96325.03
2018-04-18T20:39:56.436Z,96321.11
2018-04-18T20:42:59.762Z,96326.84
2018-04-18T20:46:34.778Z,96327.61
2018-04-18T20:49:40.213Z,96331.13
2018-04-18T20:52:43.470Z,96328.84
2018-04-18T20:55:47.530Z,96332.84
2018-04-18T20:58:50.822Z,96332.66
2018-04-18T21:01:54.121Z,96331.30
2018-04-18T21:04:57.463Z,96330.08
2018-04-18T21:08:00.725Z,96331.31
2018-04-18T21:11:03.988Z,96322.73
2018-04-18T21:14:07.341Z,96325.84
2018-04-18T21:17:10.603Z,96324.47
2018-04-18T21:20:13.880Z,96331.12
2018-04-18T21:23:19.158Z,96331.17
2018-04-18T21:26:22.432Z,96330.81
2018-04-18T21:29:26.468Z,96330.07
2018-04-18T21:32:30.139Z,96322.53
2018-04-18T21:35:34.172Z,96329.34
2018-04-18T21:38:37.460Z,96326.83
2018-04-18T21:41:41.520Z,96324.54
2018-04-18T21:44:44.809Z,96323.20
2018-04-18T21:47:48.073Z,96324.08
2018-04-18T21:50:51.364Z,96319.08
2018-04-18T21:53:55.434Z,96321.92
2018-04-18T21:56:59.465Z,96320.64
2018-04-18T22:00:02.736Z,96323.44
2018-04-18T22:03:06.009Z,96322.58
2018-04-18T22:06:09.328Z,96326.66
2018-04-18T22:09:12.634Z,96333.86
2018-04-18T22:12:15.901Z,96328.80
2018-04-18T22:15:19.178Z,96327.68
2018-04-18T22:18:23.351Z,96328.95
2018-04-18T22:21:27.449Z,96327.20
2018-04-18T22:24:30.720Z,96322.37
2018-04-18T22:27:50.134Z,96320.31
2018-04-18T22:30:53.697Z,96318.03
2018-04-18T22:33:57.739Z,96312.92
2018-04-18T22:37:01.042Z,96307.01
2018-04-18T22:40:04.300Z,96311.53
2018-04-18T22:43:08.365Z,96311.59
2018-04-18T22:46:11.633Z,96315.87
2018-04-18T22:49:14.949Z,96318.88
2018-04-18T22:52:18.825Z,96313.82
2018-04-18T22:55:22.868Z,96316.95
2018-04-18T22:58:26.184Z,96314.97
2018-04-18T23:01:29.715Z,96311.53
2018-04-18T23:04:32.978Z,96310.38
2018-04-18T23:07:36.244Z,96315.05
2018-04-18T23:10:40.295Z,96310.59
2018-04-18T23:13:43.565Z,96308.41
2018-04-18T23:16:46.869Z,96303.38
2018-04-18T23:19:50.148Z,96300.11
2018-04-18T23:22:55.037Z,96294.80
2018-04-18T23:25:58.295Z,96301.39
2018-04-18T23:29:01.567Z,96298.77
2018-04-18T23:32:04.847Z,96296.47
2018-04-18T23:35:08.186Z,96297.19
2018-04-18T23:38:12.237Z,96291.59
2018-04-18T23:41:15.513Z,96287.50
2018-04-18T23:44:18.846Z,96289.06
2018-04-18T23:47:22.112Z,96282.72
2018-04-18T23:50:25.458Z,96281.31
2018-04-18T23:53:28.716Z,96284.11
2018-04-18T23:56:31.966Z,96276.85
2018-04-18T23:59:36.005Z,96281.48
